Hauptseite
METAR-TAF:

METAR-TAF

Flughäfen :

Flughafen Essex County

Caldwell, New Jersey, Vereinigte Staaten

Breite: 40-52-35N, Länge: 074-16-59W, Höhe: 52 m

Beobachtung

Neuester Wetterbericht von vor 1 Stunde und 9 Minuten, um 08:53 UTC
Windstille
Temperatur 17°C
Luftfeuchtigkeit 88%
Luftdruck 1023 hPa
Sichtweite: 16.1 km
Geschlossene Wolkendecke in der Höhe von 600 ft

METAR: KCDW 270853Z AUTO 00000KT 10SM OVC006 17/15 A3022 RMK AO2 SLP236 T01670150 50000

Zeit: 06:02 (10:02 UTC)


TAF: fehlend

Wetterbeobachtungen und Prognosen von mehr als 4000 Flughäfen (METAR und TAF Bericht).

Die verfügbaren Stationen werden durch gelbe und rote Markierungen auf der Karte dargestellt.

Führen Sie die Maus auf sie, um den Namen der Station zu sehen.

Darauf klicken, um die Beobachtung von Wetterbeobachtungen und Prognosen zu sehen.

Um die Karte zu ändern : klicken Sie auf den grünen Tasten mit einem schwarzen Kreuz Zum Vergrößern, auf den grünen Button mit einem Gedankenstrich zu verkleinern, oder auf die grünen Pfeile für benachbarte Karten.


METAR-TAF: